< Cyclone 199203 1992 Season Cyclone 199205 >
Cyclone 199204 (DAMAN)
General InformationTrack Information on Google MapsDetailed Wind InformationList of All Images || ResourceGoogle EarthGE AnimationAtom FeedGeoJSON
Detalied Best Track (Time Zone = UTC)
Year Month Day Hour Lat. Long. Pressure (hPa) Wind (kt) Class Image Chart
1992 2 15 06 -13.0 168.5 950 40 3 Image --
1992 2 15 12 -13.4 167.6 950 45 3 Image --
1992 2 15 18 -13.9 166.4 950 50 4 Image --
1992 2 16 00 -14.9 165.0 950 50 4 Image --
1992 2 16 06 -15.9 163.5 950 55 4 Image --
1992 2 16 12 -17.4 162.5 950 60 4 Image --
1992 2 16 18 -18.4 162.0 950 65 5 Image --
1992 2 17 00 -19.4 161.6 950 70 5 Image --
1992 2 17 06 -20.9 161.2 955 70 5 Image --
1992 2 17 12 -22.6 160.7 960 70 5 Image --
1992 2 17 18 -24.5 159.7 965 65 5 Image --
1992 2 18 00 -25.9 158.5 965 65 5 Image --
1992 2 18 06 -27.4 157.5 975 60 4 Image --
1992 2 18 12 -28.5 156.7 975 60 4 Image --
1992 2 18 18 -29.5 156.0 980 55 4 Image --
1992 2 19 00 -30.4 155.5 980 55 4 Image --
1992 2 19 06 -30.9 156.2 985 55 4 Image --
1992 2 19 12 -31.7 156.9 990 55 4 Image --
1992 2 19 18 -32.9 157.9 990 55 4 Image --
1992 2 20 00 -34.1 159.7 992 50 4 Image --
1992 2 20 06 -35.4 161.8 994 45 3 Image --
< Cyclone 199203 1992 Season Cyclone 199205 >

Help